Terminal Aerodrome Forecast
Issued by NWS

Home | Current Version | Previous Version | Graphics & Text | Print | Product List | Glossary On
Versions: 1 2 3 4 5 6 7 8 9 10 11 12 13 14 15 16 17
823
FTUS43 KICT 151132
TAFRSL
TAF
KRSL 151132Z 1512/1612 17008KT P6SM BKN200
     FM151600 16009KT P6SM SCT200
     FM151900 16013G21KT P6SM SCT060 BKN200
     FM160000 16015G23KT P6SM VCTS BKN080CB
     FM160300 16010KT P6SM VCTS BKN080CB
     FM160600 16009KT P6SM BKN110=

USA.gov is the U.S. government's official web portal to all federal, state and local government web resources and services.